If you wish to contribute or participate in the discussions about articles you are invited to join SKYbrary as a registered user

 Actions

Bordj Badji Mokhtar Airport

From SKYbrary Wiki

DATM
Airport
ICAO: DATM – IATA: BMW
Summary
Name Bordj Badji Mokhtar Airport
Region Africa
Territory Algeria DZ.gif
Location , Adrar
Serving Bordj Badji Mokhtar
Elevation 397.154 m
1,303 ft
1,303 ft397.154 m
Type small airport
Coordinates 21° 22' 30.00" N, 0° 55' 26.00" E
Runways
Designator Length Width Surface ROPS
8/26 2247 m7,372.047 ft
0 m0 ft
UNK /


METAR
Observation DATM 101000Z 25020KT 1000 DRSA NSC 39/16 Q1011
Station Bordj Mokhtar
Date/Time 10 June 2019 10:00:00
Wind direction 250°
Wind speed 20 kts
Lowest cloud amount nil significant cloud
Temperature 39°C
Dew point 16°C
Humidity 26%
QNH 1011 hPa
Weather condition n/a